Time;durP1;ratioP1;P1;durP2;ratioP2;P2;SDS_P1;SDS_P2;PMS_P1;PMS_P2;Temp;Humidity;BMP_temperature;BMP_pressure;BME280_temperature;BME280_humidity;BME280_pressure;Samples;Min_cycle;Max_cycle;Signal;HPM_P1;HPM_P2
2023/03/06 00:00:31;;;;;;;;;;;13.70;90.60;;;;;;5076825;28;19909;-14
2023/03/06 00:02:57;;;;;;;;;;;13.70;90.70;;;;;;5077487;28;19920;-17
2023/03/06 00:05:23;;;;;;;;;;;13.70;90.70;;;;;;5077305;28;19912;-17
2023/03/06 00:07:49;;;;;;;;;;;13.70;90.70;;;;;;5077530;28;19912;-16
2023/03/06 00:10:17;;;;;;;;;;;13.70;90.70;;;;;;5078289;28;20282;-14
2023/03/06 00:12:42;;;;;;;;;;;13.70;90.70;;;;;;5077019;28;19909;-18
2023/03/06 00:15:08;;;;;;;;;;;13.70;90.70;;;;;;5076558;28;19973;-12
2023/03/06 00:17:34;;;;;;;;;;;13.70;90.70;;;;;;5076736;28;19931;-18
2023/03/06 00:20:09;;;;;;;;;;;13.70;90.60;;;;;;5077668;28;19915;-14
2023/03/06 00:22:35;;;;;;;;;;;13.70;90.70;;;;;;5076587;28;19909;-16
2023/03/06 00:25:00;;;;;;;;;;;13.70;90.60;;;;;;5076691;28;19923;-16
2023/03/06 00:27:26;;;;;;;;;;;13.70;90.60;;;;;;5077724;28;19940;-14
2023/03/06 00:30:04;;;;;;;;;;;13.70;90.60;;;;;;5077206;28;19909;-17
2023/03/06 00:32:30;;;;;;;;;;;13.70;90.70;;;;;;5077443;28;19948;-15
2023/03/06 00:34:55;;;;;;;;;;;13.70;90.60;;;;;;5076438;28;20028;-16
2023/03/06 00:37:22;;;;;;;;;;;13.70;90.60;;;;;;5077708;28;20282;-16
2023/03/06 00:39:48;;;;;;;;;;;13.70;90.60;;;;;;5077071;28;19912;-15
2023/03/06 00:42:14;;;;;;;;;;;13.70;90.60;;;;;;5076890;28;19913;-17
2023/03/06 00:44:39;;;;;;;;;;;13.70;90.50;;;;;;5076598;28;19921;-16
2023/03/06 00:47:05;;;;;;;;;;;13.70;90.50;;;;;;5077486;28;19909;-17
2023/03/06 00:49:31;;;;;;;;;;;13.70;90.50;;;;;;5081247;28;19916;-15
2023/03/06 00:52:18;;;;;;;;;;;13.70;90.50;;;;;;5080610;28;19947;-15
2023/03/06 00:54:44;;;;;;;;;;;13.70;90.50;;;;;;5080931;28;19944;-17
2023/03/06 00:57:09;;;;;;;;;;;13.70;90.50;;;;;;5080698;28;19958;-16
2023/03/06 00:59:35;;;;;;;;;;;13.70;90.50;;;;;;5080945;28;19918;-16
2023/03/06 01:02:05;;;;;;;;;;;13.70;90.40;;;;;;5080183;28;19915;-15
2023/03/06 01:04:30;;;;;;;;;;;13.70;90.50;;;;;;5080201;28;19919;-15
2023/03/06 01:06:56;;;;;;;;;;;13.70;90.70;;;;;;5080096;28;19908;-16
2023/03/06 01:09:21;;;;;;;;;;;13.70;90.40;;;;;;5079981;28;19924;-16
2023/03/06 01:12:10;;;;;;;;;;;13.70;90.40;;;;;;5080651;28;19915;-16
2023/03/06 01:14:36;;;;;;;;;;;13.70;90.40;;;;;;5080333;28;19955;-17
2023/03/06 01:17:01;;;;;;;;;;;13.70;90.40;;;;;;5080663;28;19956;-15
2023/03/06 01:19:27;;;;;;;;;;;13.70;90.40;;;;;;5080661;28;19933;-17
2023/03/06 01:21:52;;;;;;;;;;;13.70;90.40;;;;;;5080128;28;19908;-14
2023/03/06 01:24:19;;;;;;;;;;;13.70;90.40;;;;;;5080945;28;19912;-18
2023/03/06 01:26:45;;;;;;;;;;;13.70;90.50;;;;;;5080701;28;19961;-16
2023/03/06 01:29:10;;;;;;;;;;;13.70;90.40;;;;;;5080255;28;19908;-16
2023/03/06 01:31:36;;;;;;;;;;;13.70;90.40;;;;;;5080385;28;19908;-15
2023/03/06 01:34:02;;;;;;;;;;;13.70;90.40;;;;;;5079938;28;19909;-17
2023/03/06 01:36:27;;;;;;;;;;;13.70;90.40;;;;;;5080839;28;19954;-14
2023/03/06 01:38:53;;;;;;;;;;;13.70;90.40;;;;;;5080169;28;19908;-15
2023/03/06 01:41:20;;;;;;;;;;;13.70;90.30;;;;;;5078827;28;19956;-15
2023/03/06 01:43:46;;;;;;;;;;;13.70;90.30;;;;;;5079483;28;19916;-17
2023/03/06 01:46:20;;;;;;;;;;;13.70;90.30;;;;;;5079020;28;19919;-14
2023/03/06 01:48:46;;;;;;;;;;;13.70;90.30;;;;;;5079571;28;20159;-15
2023/03/06 01:51:13;;;;;;;;;;;13.70;90.30;;;;;;5080081;28;20285;-15
2023/03/06 01:53:40;;;;;;;;;;;13.70;90.30;;;;;;5079373;28;19909;-17
2023/03/06 01:56:06;;;;;;;;;;;13.70;90.30;;;;;;5079590;28;20308;-14
2023/03/06 01:58:31;;;;;;;;;;;13.70;90.30;;;;;;5079807;28;19908;-17
2023/03/06 02:00:57;;;;;;;;;;;13.70;90.20;;;;;;5079058;28;19920;-17
2023/03/06 02:03:24;;;;;;;;;;;13.70;90.20;;;;;;5079627;28;19962;-17
2023/03/06 02:05:56;;;;;;;;;;;13.70;90.20;;;;;;5079930;28;19964;-17
2023/03/06 02:08:22;;;;;;;;;;;13.70;90.20;;;;;;5079431;28;19909;-16
2023/03/06 02:11:01;;;;;;;;;;;13.70;90.20;;;;;;5079695;28;19915;-13
2023/03/06 02:13:47;;;;;;;;;;;13.70;90.20;;;;;;5079821;28;19905;-15
2023/03/06 02:16:12;;;;;;;;;;;13.70;90.20;;;;;;5079603;28;20262;-14
2023/03/06 02:18:55;;;;;;;;;;;13.60;90.20;;;;;;5079503;28;19974;-15
2023/03/06 02:21:23;;;;;;;;;;;13.60;90.20;;;;;;5079351;28;19920;-13
2023/03/06 02:24:04;;;;;;;;;;;13.60;90.20;;;;;;5078885;28;19908;-16
2023/03/06 02:26:30;;;;;;;;;;;13.60;90.20;;;;;;5078703;28;19913;-14
2023/03/06 02:28:58;;;;;;;;;;;13.60;90.20;;;;;;5079351;28;19916;-16
2023/03/06 02:31:28;;;;;;;;;;;13.60;90.20;;;;;;5079175;28;19952;-16
2023/03/06 02:34:26;;;;;;;;;;;13.60;90.20;;;;;;5078881;28;20312;-16
2023/03/06 02:36:57;;;;;;;;;;;13.60;90.20;;;;;;5078557;28;19908;-16
2023/03/06 02:39:25;;;;;;;;;;;13.60;90.20;;;;;;5078386;28;19908;-16
2023/03/06 02:41:50;;;;;;;;;;;13.60;90.20;;;;;;5078696;28;20332;-16
2023/03/06 02:44:16;;;;;;;;;;;13.60;90.10;;;;;;5078786;28;20274;-16
2023/03/06 02:46:41;;;;;;;;;;;13.60;90.20;;;;;;5079258;28;20239;-17
2023/03/06 02:49:07;;;;;;;;;;;13.60;90.20;;;;;;5078592;28;19909;-15
2023/03/06 02:51:41;;;;;;;;;;;13.60;90.10;;;;;;5078293;28;19908;-15
2023/03/06 02:54:07;;;;;;;;;;;13.60;90.20;;;;;;5078206;28;19913;-15
2023/03/06 02:56:32;;;;;;;;;;;13.60;90.10;;;;;;5076551;28;20064;-13
2023/03/06 02:58:58;;;;;;;;;;;13.60;90.10;;;;;;5077653;28;20022;-16
2023/03/06 03:01:25;;;;;;;;;;;13.60;90.10;;;;;;5078713;28;19916;-15
2023/03/06 03:03:50;;;;;;;;;;;13.60;90.10;;;;;;5078218;28;19917;-14
2023/03/06 03:06:16;;;;;;;;;;;13.60;90.10;;;;;;5078158;28;19962;-14
2023/03/06 03:08:41;;;;;;;;;;;13.60;90.10;;;;;;5078036;28;19940;-13
2023/03/06 03:11:08;;;;;;;;;;;13.60;90.10;;;;;;5077494;28;19908;-18
2023/03/06 03:13:34;;;;;;;;;;;13.60;90.10;;;;;;5078820;28;19919;-15
2023/03/06 03:16:04;;;;;;;;;;;13.60;90.00;;;;;;5078848;28;19912;-17
2023/03/06 03:18:30;;;;;;;;;;;13.60;90.10;;;;;;5078668;28;19939;-13
2023/03/06 03:21:00;;;;;;;;;;;13.60;90.00;;;;;;5078178;28;19966;-15
2023/03/06 03:23:26;;;;;;;;;;;13.60;90.10;;;;;;5078414;28;19909;-17
2023/03/06 03:25:52;;;;;;;;;;;13.60;90.00;;;;;;5078215;28;19969;-17
2023/03/06 03:28:18;;;;;;;;;;;13.60;90.00;;;;;;5078163;28;20286;-15
2023/03/06 03:30:46;;;;;;;;;;;13.60;90.00;;;;;;5078344;28;19971;-17
2023/03/06 03:33:11;;;;;;;;;;;13.60;90.20;;;;;;5077513;28;20010;-17
2023/03/06 03:35:37;;;;;;;;;;;13.60;90.00;;;;;;5078183;28;19959;-16
2023/03/06 03:38:03;;;;;;;;;;;13.60;89.90;;;;;;5078319;28;19919;-14
2023/03/06 03:40:41;;;;;;;;;;;13.60;90.00;;;;;;5077888;28;19908;-17
2023/03/06 03:43:06;;;;;;;;;;;13.60;89.90;;;;;;5077692;28;19951;-16
2023/03/06 03:45:32;;;;;;;;;;;13.60;89.80;;;;;;5077456;28;19966;-17
2023/03/06 03:47:57;;;;;;;;;;;13.60;89.80;;;;;;5078495;28;19909;-16
2023/03/06 03:50:23;;;;;;;;;;;13.60;89.80;;;;;;5078237;28;19920;-16
2023/03/06 03:52:48;;;;;;;;;;;13.60;89.70;;;;;;5077599;28;19908;-15
2023/03/06 03:55:14;;;;;;;;;;;13.60;89.70;;;;;;5078206;28;19940;-16
2023/03/06 03:57:40;;;;;;;;;;;13.60;89.70;;;;;;5077468;28;19989;-15
2023/03/06 04:00:16;;;;;;;;;;;13.60;89.60;;;;;;5077120;28;20440;-16
2023/03/06 04:02:42;;;;;;;;;;;13.60;89.60;;;;;;5077400;28;19908;-18
2023/03/06 04:05:09;;;;;;;;;;;13.60;89.60;;;;;;5077934;28;19924;-15
2023/03/06 04:07:35;;;;;;;;;;;13.50;89.50;;;;;;5077345;28;20007;-17
2023/03/06 04:10:00;;;;;;;;;;;13.60;89.60;;;;;;5077972;28;20007;-15
2023/03/06 04:12:25;;;;;;;;;;;13.50;89.50;;;;;;5077326;28;19912;-18
2023/03/06 04:14:51;;;;;;;;;;;13.60;89.60;;;;;;5076761;28;20171;-13
2023/03/06 04:17:17;;;;;;;;;;;13.50;89.50;;;;;;5077630;28;19923;-17
2023/03/06 04:19:42;;;;;;;;;;;13.60;89.50;;;;;;5077583;28;20037;-16
2023/03/06 04:22:08;;;;;;;;;;;13.50;89.40;;;;;;5079162;28;19917;-13
2023/03/06 04:24:33;;;;;;;;;;;13.50;89.30;;;;;;5081103;28;19942;-17
2023/03/06 04:30:03;;;;;;;;;;;13.50;89.30;;;;;;5081175;28;20344;-13
2023/03/06 04:32:28;;;;;;;;;;;13.50;89.20;;;;;;5080837;28;19919;-15
2023/03/06 04:34:54;;;;;;;;;;;13.50;89.20;;;;;;5081352;28;19909;-13
2023/03/06 04:37:20;;;;;;;;;;;13.50;89.20;;;;;;5080857;28;20297;-17
2023/03/06 04:39:51;;;;;;;;;;;13.50;89.20;;;;;;5081399;28;19909;-13
2023/03/06 04:42:17;;;;;;;;;;;13.50;89.20;;;;;;5081162;28;19962;-17
2023/03/06 04:44:43;;;;;;;;;;;13.50;89.20;;;;;;5081489;28;19967;-16
2023/03/06 04:47:09;;;;;;;;;;;13.50;89.10;;;;;;5080772;28;19940;-18
2023/03/06 04:49:47;;;;;;;;;;;13.50;89.10;;;;;;5080179;28;19935;-15
2023/03/06 04:52:12;;;;;;;;;;;13.50;89.10;;;;;;5081256;28;19908;-16
2023/03/06 04:54:38;;;;;;;;;;;13.50;89.10;;;;;;5080456;28;19916;-17
2023/03/06 04:57:03;;;;;;;;;;;13.50;89.10;;;;;;5079800;28;19908;-16
2023/03/06 04:59:29;;;;;;;;;;;13.50;89.00;;;;;;5080270;28;19969;-16
2023/03/06 05:02:23;;;;;;;;;;;13.50;89.00;;;;;;5080756;28;19909;-17
2023/03/06 05:04:48;;;;;;;;;;;13.50;89.10;;;;;;5080911;28;20243;-16
2023/03/06 05:07:14;;;;;;;;;;;13.50;89.00;;;;;;5080431;28;19908;-16
2023/03/06 05:09:39;;;;;;;;;;;13.50;89.10;;;;;;5080915;28;19939;-18
2023/03/06 05:12:05;;;;;;;;;;;13.50;89.00;;;;;;5080642;28;19909;-17
2023/03/06 05:14:31;;;;;;;;;;;13.50;88.90;;;;;;5080524;28;19948;-17
2023/03/06 05:16:56;;;;;;;;;;;13.50;89.00;;;;;;5079666;28;20030;-15
2023/03/06 05:19:22;;;;;;;;;;;13.50;88.90;;;;;;5079575;28;19976;-16
2023/03/06 05:21:48;;;;;;;;;;;13.50;88.90;;;;;;5079794;28;19909;-13
2023/03/06 05:24:13;;;;;;;;;;;13.50;88.90;;;;;;5079555;28;19956;-17
2023/03/06 05:26:40;;;;;;;;;;;13.50;88.90;;;;;;5080305;28;19908;-14
2023/03/06 05:29:05;;;;;;;;;;;13.50;88.90;;;;;;5080100;28;19934;-16
2023/03/06 05:31:31;;;;;;;;;;;13.50;88.90;;;;;;5079381;28;20274;-17
2023/03/06 05:33:57;;;;;;;;;;;13.50;88.80;;;;;;5078947;28;19912;-18
2023/03/06 05:36:32;;;;;;;;;;;13.50;88.90;;;;;;5080527;28;19908;-16
2023/03/06 05:38:57;;;;;;;;;;;13.50;88.90;;;;;;5079531;28;19919;-15
2023/03/06 05:41:23;;;;;;;;;;;13.50;89.60;;;;;;5079533;28;19909;-17
2023/03/06 05:43:49;;;;;;;;;;;13.50;89.00;;;;;;5079422;28;19916;-13
2023/03/06 05:46:15;;;;;;;;;;;13.50;89.10;;;;;;5078481;28;19917;-15
2023/03/06 05:48:41;;;;;;;;;;;13.50;89.10;;;;;;5078531;28;19919;-15
2023/03/06 05:51:06;;;;;;;;;;;13.50;89.00;;;;;;5077997;28;19909;-17
2023/03/06 05:53:32;;;;;;;;;;;13.50;89.00;;;;;;5078325;28;19959;-17
2023/03/06 05:56:03;;;;;;;;;;;13.50;89.00;;;;;;5078955;28;19908;-16
2023/03/06 05:58:29;;;;;;;;;;;13.40;88.90;;;;;;5078609;28;19909;-15
2023/03/06 06:00:55;;;;;;;;;;;13.40;88.90;;;;;;5078277;28;20312;-14
2023/03/06 06:03:20;;;;;;;;;;;13.40;89.00;;;;;;5079822;28;19920;-14
2023/03/06 06:05:46;;;;;;;;;;;13.40;88.90;;;;;;5078446;28;19927;-16
2023/03/06 06:08:12;;;;;;;;;;;13.40;88.90;;;;;;5078356;28;19908;-18
2023/03/06 06:10:38;;;;;;;;;;;13.40;88.90;;;;;;5077903;28;19909;-15
2023/03/06 06:13:03;;;;;;;;;;;13.40;88.90;;;;;;5076547;28;20281;-20
2023/03/06 06:15:29;;;;;;;;;;;13.40;88.90;;;;;;5078179;28;19961;-15
2023/03/06 06:17:55;;;;;;;;;;;13.40;88.90;;;;;;5077671;28;19993;-18
2023/03/06 06:20:20;;;;;;;;;;;13.40;88.90;;;;;;5077755;28;20187;-15
2023/03/06 06:22:46;;;;;;;;;;;13.40;88.90;;;;;;5077949;28;19909;-16
2023/03/06 06:25:12;;;;;;;;;;;13.40;89.00;;;;;;5077538;28;20300;-17
2023/03/06 06:27:37;;;;;;;;;;;13.40;89.10;;;;;;5078231;28;19908;-16
2023/03/06 06:30:04;;;;;;;;;;;13.40;89.00;;;;;;5076419;28;20416;-15
2023/03/06 06:32:39;;;;;;;;;;;13.50;89.00;;;;;;5076120;28;20001;-16
2023/03/06 06:35:05;;;;;;;;;;;13.50;88.90;;;;;;5076629;28;19948;-16
2023/03/06 06:37:30;;;;;;;;;;;13.50;89.20;;;;;;5077220;28;19967;-16
2023/03/06 06:39:56;;;;;;;;;;;13.50;89.30;;;;;;5077143;28;19923;-18
2023/03/06 06:42:21;;;;;;;;;;;13.50;89.60;;;;;;5077895;28;19915;-15
2023/03/06 06:44:47;;;;;;;;;;;13.50;90.10;;;;;;5075631;28;20019;-16
2023/03/06 06:47:12;;;;;;;;;;;13.50;90.00;;;;;;5076971;28;19908;-17
2023/03/06 06:49:51;;;;;;;;;;;13.50;90.00;;;;;;5077372;28;19916;-13
2023/03/06 06:52:17;;;;;;;;;;;13.50;90.10;;;;;;5076280;28;19919;-18
2023/03/06 06:54:43;;;;;;;;;;;13.50;90.20;;;;;;5074514;28;19909;-14
2023/03/06 06:57:09;;;;;;;;;;;13.50;90.20;;;;;;5075087;28;19916;-17
2023/03/06 06:59:35;;;;;;;;;;;13.50;90.20;;;;;;5074949;28;19908;-16
2023/03/06 07:02:00;;;;;;;;;;;13.50;90.10;;;;;;5075691;28;19924;-16
2023/03/06 07:04:26;;;;;;;;;;;13.50;90.00;;;;;;5076386;28;19912;-17
2023/03/06 07:06:53;;;;;;;;;;;13.50;90.00;;;;;;5076801;28;19974;-16
2023/03/06 07:09:30;;;;;;;;;;;13.50;90.00;;;;;;5076200;28;19927;-16
2023/03/06 07:11:56;;;;;;;;;;;13.50;90.00;;;;;;5076274;28;19970;-17
2023/03/06 07:14:21;;;;;;;;;;;13.50;89.90;;;;;;5076150;28;19916;-16
2023/03/06 07:16:47;;;;;;;;;;;13.50;90.00;;;;;;5077114;28;19908;-15
2023/03/06 07:19:14;;;;;;;;;;;13.50;89.90;;;;;;5076565;28;19919;-19
2023/03/06 07:21:39;;;;;;;;;;;13.50;89.90;;;;;;5074378;28;19912;-17
2023/03/06 07:24:05;;;;;;;;;;;13.50;89.80;;;;;;5061057;28;19909;-19
2023/03/06 07:26:30;;;;;;;;;;;13.50;89.80;;;;;;5076618;28;19913;-18
2023/03/06 07:28:56;;;;;;;;;;;13.50;89.80;;;;;;5075810;28;19944;-18
2023/03/06 07:31:23;;;;;;;;;;;13.50;89.90;;;;;;5092295;28;19909;-17
2023/03/06 07:33:49;;;;;;;;;;;13.50;89.90;;;;;;5075594;28;19915;-16
2023/03/06 07:36:14;;;;;;;;;;;13.50;90.00;;;;;;5074542;28;19908;-17
2023/03/06 07:38:40;;;;;;;;;;;13.50;90.00;;;;;;5075547;28;19959;-16
2023/03/06 07:41:08;;;;;;;;;;;13.50;90.10;;;;;;5073824;28;19915;-18
2023/03/06 07:43:33;;;;;;;;;;;13.60;90.10;;;;;;5074437;28;19924;-15
2023/03/06 07:45:59;;;;;;;;;;;13.60;90.00;;;;;;5076092;28;19923;-15
2023/03/06 07:48:25;;;;;;;;;;;13.60;90.00;;;;;;5074873;28;19908;-14
2023/03/06 07:50:55;;;;;;;;;;;13.60;90.00;;;;;;5075259;28;19956;-17
2023/03/06 07:53:21;;;;;;;;;;;13.60;90.00;;;;;;5075528;28;19924;-17
2023/03/06 07:55:47;;;;;;;;;;;13.60;90.00;;;;;;5075011;28;20205;-19
2023/03/06 07:58:12;;;;;;;;;;;13.70;90.00;;;;;;5074919;28;19909;-14
2023/03/06 08:00:38;;;;;;;;;;;13.70;90.10;;;;;;5076328;28;19916;-17
2023/03/06 08:03:05;;;;;;;;;;;13.70;90.20;;;;;;5074713;28;19908;-17
2023/03/06 08:05:31;;;;;;;;;;;13.70;90.20;;;;;;5075207;28;19916;-15
2023/03/06 08:07:56;;;;;;;;;;;13.70;90.00;;;;;;5075707;28;19919;-18
2023/03/06 08:10:22;;;;;;;;;;;13.70;89.90;;;;;;5075792;28;19916;-18
2023/03/06 08:12:53;;;;;;;;;;;13.70;89.20;;;;;;5074759;28;19909;-16
2023/03/06 08:15:19;;;;;;;;;;;13.70;88.80;;;;;;5075984;28;19908;-16
2023/03/06 08:17:44;;;;;;;;;;;13.70;88.30;;;;;;5074405;28;19909;-17
2023/03/06 08:20:10;;;;;;;;;;;13.80;87.70;;;;;;5074551;28;19908;-19
2023/03/06 08:22:36;;;;;;;;;;;13.80;87.10;;;;;;5073577;28;20019;-18
2023/03/06 08:25:03;;;;;;;;;;;13.70;86.70;;;;;;5074102;28;20058;-16
2023/03/06 08:27:29;;;;;;;;;;;13.70;86.40;;;;;;5072690;28;20431;-15
2023/03/06 08:29:55;;;;;;;;;;;13.80;85.60;;;;;;5073372;28;19932;-17
2023/03/06 08:32:21;;;;;;;;;;;13.80;85.10;;;;;;5074471;28;19919;-18
2023/03/06 08:34:46;;;;;;;;;;;13.80;84.60;;;;;;5073341;28;19985;-17
2023/03/06 08:37:12;;;;;;;;;;;13.80;83.90;;;;;;5075185;28;19970;-16
2023/03/06 08:39:37;;;;;;;;;;;13.90;83.80;;;;;;5073718;28;20096;-18
2023/03/06 08:42:18;;;;;;;;;;;13.90;83.40;;;;;;5074058;28;19908;-16
2023/03/06 08:44:44;;;;;;;;;;;13.90;83.00;;;;;;5075572;28;20262;-18
2023/03/06 08:47:10;;;;;;;;;;;13.90;82.60;;;;;;5075086;28;19963;-13
2023/03/06 08:49:38;;;;;;;;;;;13.90;82.00;;;;;;5075522;28;19920;-21
2023/03/06 08:52:04;;;;;;;;;;;13.90;81.60;;;;;;5074078;28;19912;-18
2023/03/06 08:54:32;;;;;;;;;;;14.00;81.30;;;;;;5074052;28;20201;-16
2023/03/06 08:56:58;;;;;;;;;;;14.00;80.80;;;;;;5074168;28;20019;-17
2023/03/06 08:59:23;;;;;;;;;;;14.00;80.50;;;;;;5073422;28;20439;-17
2023/03/06 09:01:49;;;;;;;;;;;14.00;80.60;;;;;;5074828;28;19909;-17
2023/03/06 09:04:16;;;;;;;;;;;14.00;80.40;;;;;;5074576;28;19908;-15
2023/03/06 09:06:42;;;;;;;;;;;14.00;80.20;;;;;;5074958;28;19923;-16
2023/03/06 09:09:08;;;;;;;;;;;14.00;80.00;;;;;;5077979;28;19962;-18
2023/03/06 09:11:34;;;;;;;;;;;14.00;79.80;;;;;;5078574;28;19913;-19
2023/03/06 09:14:13;;;;;;;;;;;14.00;79.50;;;;;;5078507;28;19908;-14
2023/03/06 09:16:38;;;;;;;;;;;14.00;79.70;;;;;;5076692;28;19908;-17
2023/03/06 09:19:04;;;;;;;;;;;14.00;79.20;;;;;;5076759;28;19908;-14
2023/03/06 09:21:29;;;;;;;;;;;14.00;79.10;;;;;;5076682;28;19919;-16
2023/03/06 09:23:55;;;;;;;;;;;14.00;78.80;;;;;;5078531;28;20274;-18
2023/03/06 09:26:21;;;;;;;;;;;14.00;78.90;;;;;;5078107;28;19966;-16
2023/03/06 09:28:47;;;;;;;;;;;14.00;78.80;;;;;;5078204;28;19947;-17
2023/03/06 09:31:14;;;;;;;;;;;14.00;78.60;;;;;;5078562;28;19947;-18
2023/03/06 09:33:41;;;;;;;;;;;14.00;78.70;;;;;;5076648;28;20270;-16
2023/03/06 09:36:09;;;;;;;;;;;14.00;78.70;;;;;;5078505;28;19912;-17
2023/03/06 09:38:34;;;;;;;;;;;14.00;78.70;;;;;;5076936;28;19919;-17
2023/03/06 09:41:02;;;;;;;;;;;14.00;79.30;;;;;;5077761;28;19972;-20
2023/03/06 09:43:36;;;;;;;;;;;14.00;79.70;;;;;;5077146;28;19909;-16
2023/03/06 09:46:06;;;;;;;;;;;14.00;79.90;;;;;;5077723;28;19947;-17
2023/03/06 09:48:52;;;;;;;;;;;14.00;80.00;;;;;;5077387;28;19912;-19
2023/03/06 09:51:20;;;;;;;;;;;14.00;80.20;;;;;;5076578;28;20263;-15
2023/03/06 09:53:45;;;;;;;;;;;14.00;80.40;;;;;;5077372;28;20321;-18
2023/03/06 09:56:16;;;;;;;;;;;14.00;80.60;;;;;;5076251;28;20333;-17
2023/03/06 09:58:54;;;;;;;;;;;14.00;80.80;;;;;;5077273;28;19912;-16
2023/03/06 10:01:33;;;;;;;;;;;14.00;80.90;;;;;;5075390;28;19909;-16
2023/03/06 10:04:18;;;;;;;;;;;14.00;81.00;;;;;;5076231;28;19908;-16
2023/03/06 10:06:43;;;;;;;;;;;13.90;81.00;;;;;;5075775;28;19959;-17
2023/03/06 10:09:35;;;;;;;;;;;13.90;81.10;;;;;;5077448;28;19954;-14
2023/03/06 10:12:05;;;;;;;;;;;13.90;81.30;;;;;;5075491;28;20007;-16
2023/03/06 10:14:55;;;;;;;;;;;13.90;81.40;;;;;;5077207;28;19909;-15
2023/03/06 10:17:22;;;;;;;;;;;13.90;81.60;;;;;;5085468;28;20420;-17
2023/03/06 10:19:48;;;;;;;;;;;13.90;81.60;;;;;;5075942;28;20011;-16
2023/03/06 10:22:15;;;;;;;;;;;13.90;81.70;;;;;;5075808;28;19908;-15
2023/03/06 10:24:46;;;;;;;;;;;14.00;81.80;;;;;;5076033;28;19912;-18
2023/03/06 10:27:15;;;;;;;;;;;13.90;81.70;;;;;;5072060;28;19913;-18
2023/03/06 10:29:47;;;;;;;;;;;13.90;81.90;;;;;;5056101;28;19909;-17
2023/03/06 10:32:32;;;;;;;;;;;13.90;81.90;;;;;;5056545;28;19908;-17
2023/03/06 10:34:59;;;;;;;;;;;14.00;82.00;;;;;;5056734;28;19935;-19
2023/03/06 10:37:28;;;;;;;;;;;14.00;81.90;;;;;;5056990;28;19909;-16
2023/03/06 10:40:03;;;;;;;;;;;13.90;81.70;;;;;;5060253;28;19935;-17
2023/03/06 10:42:30;;;;;;;;;;;14.00;81.80;;;;;;5076813;28;19908;-20
2023/03/06 10:45:15;;;;;;;;;;;13.90;81.80;;;;;;5075614;28;19916;-17
2023/03/06 10:47:41;;;;;;;;;;;13.90;81.70;;;;;;5075585;28;19908;-19
2023/03/06 10:50:26;;;;;;;;;;;13.90;81.70;;;;;;5075359;28;20286;-15
2023/03/06 10:53:06;;;;;;;;;;;14.00;81.80;;;;;;5076616;28;20264;-16
2023/03/06 10:55:33;;;;;;;;;;;14.00;81.70;;;;;;5077017;28;20005;-18
2023/03/06 10:58:19;;;;;;;;;;;14.00;81.40;;;;;;5077058;28;19920;-18
2023/03/06 11:00:44;;;;;;;;;;;14.10;81.30;;;;;;5079289;28;19908;-18
2023/03/06 11:03:18;;;;;;;;;;;14.10;80.80;;;;;;5075258;28;20003;-18
2023/03/06 11:05:56;;;;;;;;;;;14.20;80.50;;;;;;5066394;28;19923;-16
2023/03/06 11:08:22;;;;;;;;;;;14.30;79.90;;;;;;5089506;28;19952;-16
2023/03/06 11:10:54;;;;;;;;;;;14.50;79.10;;;;;;5056108;28;19959;-17
2023/03/06 11:13:21;;;;;;;;;;;14.60;78.50;;;;;;5055601;28;20040;-16
2023/03/06 11:16:01;;;;;;;;;;;14.80;77.50;;;;;;5054919;28;20179;-16
2023/03/06 11:18:33;;;;;;;;;;;14.90;76.60;;;;;;5057110;28;19909;-18
2023/03/06 11:20:59;;;;;;;;;;;14.90;76.00;;;;;;5056518;28;20371;-14
2023/03/06 11:23:33;;;;;;;;;;;15.00;75.80;;;;;;5056799;28;19912;-16
2023/03/06 11:26:02;;;;;;;;;;;15.00;75.30;;;;;;5055772;28;20039;-16
2023/03/06 11:28:32;;;;;;;;;;;14.90;75.40;;;;;;5088971;28;20267;-14
2023/03/06 11:31:04;;;;;;;;;;;14.90;75.60;;;;;;5059333;28;19936;-16
2023/03/06 11:33:49;;;;;;;;;;;14.80;75.80;;;;;;5055251;28;19932;-17
2023/03/06 11:36:24;;;;;;;;;;;14.80;76.00;;;;;;5054987;28;19951;-14
2023/03/06 11:38:50;;;;;;;;;;;14.70;76.40;;;;;;5054436;28;20466;-17
2023/03/06 11:41:35;;;;;;;;;;;14.70;76.80;;;;;;5055226;28;19908;-17
2023/03/06 11:44:22;;;;;;;;;;;14.70;77.00;;;;;;5087944;28;19917;-17
2023/03/06 11:46:49;;;;;;;;;;;14.60;77.10;;;;;;5054492;28;19912;-17
2023/03/06 11:49:18;;;;;;;;;;;14.70;77.30;;;;;;5088945;28;19908;-18
2023/03/06 11:51:48;;;;;;;;;;;14.80;77.00;;;;;;5088260;28;20197;-16
2023/03/06 11:54:14;;;;;;;;;;;14.80;76.50;;;;;;5055545;28;19909;-17
2023/03/06 11:56:52;;;;;;;;;;;15.00;76.00;;;;;;5055248;28;20022;-15
2023/03/06 11:59:36;;;;;;;;;;;15.10;75.40;;;;;;5054823;28;20221;-15
2023/03/06 12:02:05;;;;;;;;;;;15.10;74.90;;;;;;5054586;28;19913;-18
2023/03/06 12:04:36;;;;;;;;;;;15.10;74.70;;;;;;5054156;28;20058;-17
2023/03/06 12:07:21;;;;;;;;;;;15.10;74.70;;;;;;5054381;28;19924;-14
2023/03/06 12:10:04;;;;;;;;;;;15.10;74.70;;;;;;5086651;28;20357;-16
2023/03/06 12:12:55;;;;;;;;;;;15.10;74.60;;;;;;5053945;28;19909;-15
2023/03/06 12:15:24;;;;;;;;;;;15.10;74.60;;;;;;5086550;28;19948;-17
2023/03/06 12:17:49;;;;;;;;;;;15.10;74.50;;;;;;5086080;28;19909;-19
2023/03/06 12:20:18;;;;;;;;;;;15.20;74.50;;;;;;5054149;28;19920;-16
2023/03/06 12:23:03;;;;;;;;;;;15.20;74.70;;;;;;5086422;28;19913;-16
2023/03/06 12:25:33;;;;;;;;;;;15.20;74.60;;;;;;5054820;28;19967;-15
2023/03/06 12:28:04;;;;;;;;;;;15.20;74.40;;;;;;5054521;28;19958;-18
2023/03/06 12:30:41;;;;;;;;;;;15.20;74.40;;;;;;5052950;28;19944;-17
2023/03/06 12:33:30;;;;;;;;;;;15.20;74.40;;;;;;5053104;28;19920;-18
2023/03/06 12:36:11;;;;;;;;;;;15.20;74.50;;;;;;5052228;28;19967;-16
2023/03/06 12:38:37;;;;;;;;;;;15.20;74.70;;;;;;5053250;28;19916;-17
2023/03/06 12:41:06;;;;;;;;;;;15.10;74.90;;;;;;5053174;28;19909;-20
2023/03/06 12:43:32;;;;;;;;;;;15.10;75.00;;;;;;5055322;28;19921;-16
2023/03/06 12:46:01;;;;;;;;;;;15.20;75.00;;;;;;5058393;28;19931;-16
2023/03/06 12:48:28;;;;;;;;;;;15.20;74.80;;;;;;5055770;28;19909;-18
2023/03/06 12:50:54;;;;;;;;;;;15.20;74.70;;;;;;5057824;28;20000;-18
2023/03/06 12:53:26;;;;;;;;;;;15.20;74.90;;;;;;5058250;28;20007;-15
2023/03/06 12:55:52;;;;;;;;;;;15.20;75.00;;;;;;5057488;28;19920;-16
2023/03/06 12:58:29;;;;;;;;;;;15.20;75.00;;;;;;5057777;28;19909;-17
2023/03/06 13:01:10;;;;;;;;;;;15.20;74.90;;;;;;5058947;28;19919;-16
2023/03/06 13:03:56;;;;;;;;;;;15.20;75.20;;;;;;5058776;28;19963;-19
2023/03/06 13:06:25;;;;;;;;;;;15.20;75.20;;;;;;5057570;28;19928;-17
2023/03/06 13:08:59;;;;;;;;;;;15.20;74.90;;;;;;5057845;28;20342;-15
2023/03/06 13:11:24;;;;;;;;;;;15.30;75.10;;;;;;5057010;28;19913;-16
2023/03/06 13:13:50;;;;;;;;;;;15.30;75.00;;;;;;5057875;28;19967;-18
2023/03/06 13:16:21;;;;;;;;;;;15.30;75.00;;;;;;5090776;28;19909;-19
2023/03/06 13:19:14;;;;;;;;;;;15.30;75.10;;;;;;5056967;28;19908;-15
2023/03/06 13:21:40;;;;;;;;;;;15.30;74.90;;;;;;5056812;28;19919;-15
2023/03/06 13:24:13;;;;;;;;;;;15.30;74.90;;;;;;5056244;28;19909;-18
2023/03/06 13:26:39;;;;;;;;;;;15.30;75.10;;;;;;5056844;28;19920;-18
2023/03/06 13:29:24;;;;;;;;;;;15.30;75.20;;;;;;5057054;28;19909;-16
2023/03/06 13:31:53;;;;;;;;;;;15.30;75.50;;;;;;5056502;28;19918;-17
2023/03/06 13:34:30;;;;;;;;;;;15.20;75.60;;;;;;5056681;28;20211;-15
2023/03/06 13:37:19;;;;;;;;;;;15.20;76.00;;;;;;5055897;28;19920;-17
2023/03/06 13:40:00;;;;;;;;;;;15.20;76.20;;;;;;5056965;28;19909;-18
2023/03/06 13:42:27;;;;;;;;;;;15.20;76.20;;;;;;5056051;28;20476;-19
2023/03/06 13:44:56;;;;;;;;;;;15.20;76.50;;;;;;5057068;28;19917;-17
2023/03/06 13:47:32;;;;;;;;;;;15.20;76.70;;;;;;5056719;28;20063;-18
2023/03/06 13:49:58;;;;;;;;;;;15.20;76.80;;;;;;5055147;28;19952;-16
2023/03/06 13:52:27;;;;;;;;;;;15.10;77.20;;;;;;5055053;28;20172;-16
2023/03/06 13:55:12;;;;;;;;;;;15.10;77.10;;;;;;5055517;28;20134;-16
2023/03/06 13:57:43;;;;;;;;;;;15.10;77.70;;;;;;5055692;28;19995;-19
2023/03/06 14:00:13;;;;;;;;;;;15.00;77.80;;;;;;5055562;28;19944;-16
2023/03/06 14:02:50;;;;;;;;;;;15.00;78.10;;;;;;5055743;28;19909;-16
2023/03/06 14:05:16;;;;;;;;;;;15.00;78.40;;;;;;5054763;28;19921;-16
2023/03/06 14:07:46;;;;;;;;;;;15.00;78.30;;;;;;5054930;28;19916;-17
2023/03/06 14:10:18;;;;;;;;;;;15.10;78.50;;;;;;5056105;28;20310;-18
2023/03/06 14:12:49;;;;;;;;;;;15.10;78.50;;;;;;5055660;28;19948;-19
2023/03/06 14:15:33;;;;;;;;;;;15.10;78.30;;;;;;5056037;28;19977;-18
2023/03/06 14:18:11;;;;;;;;;;;15.10;78.30;;;;;;5055046;28;19940;-17
2023/03/06 14:20:55;;;;;;;;;;;15.10;78.50;;;;;;5054820;28;19909;-16
2023/03/06 14:23:24;;;;;;;;;;;15.10;78.80;;;;;;5055348;28;19909;-16
2023/03/06 14:25:59;;;;;;;;;;;15.00;79.00;;;;;;5055599;28;19962;-15
2023/03/06 14:28:26;;;;;;;;;;;15.00;79.40;;;;;;5055279;28;20411;-17
2023/03/06 14:30:53;;;;;;;;;;;15.00;79.60;;;;;;5055663;28;20225;-16